sensor_id;sensor_type;location;lat;lon;timestamp;temperature;humidity
41694;DHT22;27377;50.666;9.150;2024-03-07T00:01:06;5.30;99.90
41694;DHT22;27377;50.666;9.150;2024-03-07T00:03:51;5.20;99.90
41694;DHT22;27377;50.666;9.150;2024-03-07T00:06:35;5.20;99.90
41694;DHT22;27377;50.666;9.150;2024-03-07T00:09:19;5.10;99.90
41694;DHT22;27377;50.666;9.150;2024-03-07T00:12:08;5.00;99.90
41694;DHT22;27377;50.666;9.150;2024-03-07T00:14:52;5.00;99.90
41694;DHT22;27377;50.666;9.150;2024-03-07T00:17:38;4.90;99.90
41694;DHT22;27377;50.666;9.150;2024-03-07T00:20:22;4.80;99.90
41694;DHT22;27377;50.666;9.150;2024-03-07T00:23:06;4.70;99.90
41694;DHT22;27377;50.666;9.150;2024-03-07T00:25:50;4.70;99.90
41694;DHT22;27377;50.666;9.150;2024-03-07T00:28:34;4.70;99.90
41694;DHT22;27377;50.666;9.150;2024-03-07T00:31:23;4.60;99.90
41694;DHT22;27377;50.666;9.150;2024-03-07T00:34:07;4.60;99.90
41694;DHT22;27377;50.666;9.150;2024-03-07T00:36:52;4.50;99.90
41694;DHT22;27377;50.666;9.150;2024-03-07T00:39:37;4.40;99.90
41694;DHT22;27377;50.666;9.150;2024-03-07T00:42:21;4.30;99.90
41694;DHT22;27377;50.666;9.150;2024-03-07T00:45:06;4.30;99.90
41694;DHT22;27377;50.666;9.150;2024-03-07T00:47:50;4.30;99.90
41694;DHT22;27377;50.666;9.150;2024-03-07T00:50:34;4.20;99.90
41694;DHT22;27377;50.666;9.150;2024-03-07T00:53:18;4.20;99.90
41694;DHT22;27377;50.666;9.150;2024-03-07T00:56:02;4.10;99.90
41694;DHT22;27377;50.666;9.150;2024-03-07T00:58:48;4.10;99.90
41694;DHT22;27377;50.666;9.150;2024-03-07T01:01:32;4.10;99.90
41694;DHT22;27377;50.666;9.150;2024-03-07T01:04:17;4.10;99.90
41694;DHT22;27377;50.666;9.150;2024-03-07T01:07:02;4.00;99.90
41694;DHT22;27377;50.666;9.150;2024-03-07T01:09:47;4.00;99.90
41694;DHT22;27377;50.666;9.150;2024-03-07T01:12:32;4.00;99.90
41694;DHT22;27377;50.666;9.150;2024-03-07T01:15:18;3.90;99.90
41694;DHT22;27377;50.666;9.150;2024-03-07T01:18:02;3.90;99.90
41694;DHT22;27377;50.666;9.150;2024-03-07T01:20:46;3.80;99.90
41694;DHT22;27377;50.666;9.150;2024-03-07T01:23:31;3.90;99.90
41694;DHT22;27377;50.666;9.150;2024-03-07T01:26:15;3.90;99.90
41694;DHT22;27377;50.666;9.150;2024-03-07T01:28:59;3.80;99.90
41694;DHT22;27377;50.666;9.150;2024-03-07T01:31:43;3.80;99.90
41694;DHT22;27377;50.666;9.150;2024-03-07T01:34:27;3.80;99.90
41694;DHT22;27377;50.666;9.150;2024-03-07T01:37:11;3.80;99.90
41694;DHT22;27377;50.666;9.150;2024-03-07T01:39:55;3.80;99.90
41694;DHT22;27377;50.666;9.150;2024-03-07T01:42:40;3.80;99.90
41694;DHT22;27377;50.666;9.150;2024-03-07T01:45:24;3.80;99.90
41694;DHT22;27377;50.666;9.150;2024-03-07T01:48:09;3.80;99.90
41694;DHT22;27377;50.666;9.150;2024-03-07T01:50:54;3.80;99.90
41694;DHT22;27377;50.666;9.150;2024-03-07T01:53:39;3.80;99.90
41694;DHT22;27377;50.666;9.150;2024-03-07T01:56:23;3.80;99.90
41694;DHT22;27377;50.666;9.150;2024-03-07T01:59:08;3.70;99.90
41694;DHT22;27377;50.666;9.150;2024-03-07T02:01:53;3.60;99.90
41694;DHT22;27377;50.666;9.150;2024-03-07T02:04:37;3.60;99.90
41694;DHT22;27377;50.666;9.150;2024-03-07T02:07:21;3.60;99.90
41694;DHT22;27377;50.666;9.150;2024-03-07T02:10:06;3.50;99.90
41694;DHT22;27377;50.666;9.150;2024-03-07T02:12:50;3.50;99.90
41694;DHT22;27377;50.666;9.150;2024-03-07T02:15:34;3.50;99.90
41694;DHT22;27377;50.666;9.150;2024-03-07T02:18:19;3.50;99.90
41694;DHT22;27377;50.666;9.150;2024-03-07T02:21:08;3.50;99.90
41694;DHT22;27377;50.666;9.150;2024-03-07T02:23:52;3.50;99.90
41694;DHT22;27377;50.666;9.150;2024-03-07T02:26:37;3.60;99.90
41694;DHT22;27377;50.666;9.150;2024-03-07T02:29:23;3.50;99.90
41694;DHT22;27377;50.666;9.150;2024-03-07T02:32:07;3.50;99.90
41694;DHT22;27377;50.666;9.150;2024-03-07T02:34:51;3.50;99.90
41694;DHT22;27377;50.666;9.150;2024-03-07T02:37:36;3.50;99.90
41694;DHT22;27377;50.666;9.150;2024-03-07T02:40:20;3.40;99.90
41694;DHT22;27377;50.666;9.150;2024-03-07T02:43:04;3.40;99.90
41694;DHT22;27377;50.666;9.150;2024-03-07T02:45:48;3.30;99.90
41694;DHT22;27377;50.666;9.150;2024-03-07T02:48:33;3.20;99.90
41694;DHT22;27377;50.666;9.150;2024-03-07T02:51:18;3.20;99.90
41694;DHT22;27377;50.666;9.150;2024-03-07T02:54:02;3.30;99.90
41694;DHT22;27377;50.666;9.150;2024-03-07T02:56:49;3.30;99.90
41694;DHT22;27377;50.666;9.150;2024-03-07T02:59:34;3.20;99.90
41694;DHT22;27377;50.666;9.150;2024-03-07T03:02:17;3.20;99.90
41694;DHT22;27377;50.666;9.150;2024-03-07T03:05:01;3.10;99.90
41694;DHT22;27377;50.666;9.150;2024-03-07T03:07:46;3.10;99.90
41694;DHT22;27377;50.666;9.150;2024-03-07T03:10:39;3.00;99.90
41694;DHT22;27377;50.666;9.150;2024-03-07T03:13:24;3.00;99.90
41694;DHT22;27377;50.666;9.150;2024-03-07T03:16:11;3.00;99.90
41694;DHT22;27377;50.666;9.150;2024-03-07T03:18:56;2.90;99.90
41694;DHT22;27377;50.666;9.150;2024-03-07T03:21:40;2.90;99.90
41694;DHT22;27377;50.666;9.150;2024-03-07T03:24:24;2.90;99.90
41694;DHT22;27377;50.666;9.150;2024-03-07T03:27:11;3.00;99.90
41694;DHT22;27377;50.666;9.150;2024-03-07T03:29:55;3.00;99.90
41694;DHT22;27377;50.666;9.150;2024-03-07T03:32:40;3.00;99.90
41694;DHT22;27377;50.666;9.150;2024-03-07T03:35:24;2.90;99.90
41694;DHT22;27377;50.666;9.150;2024-03-07T03:38:08;2.90;99.90
41694;DHT22;27377;50.666;9.150;2024-03-07T03:40:53;2.80;99.90
41694;DHT22;27377;50.666;9.150;2024-03-07T03:43:37;2.70;99.90
41694;DHT22;27377;50.666;9.150;2024-03-07T03:46:22;2.70;99.90
41694;DHT22;27377;50.666;9.150;2024-03-07T03:49:07;2.70;99.90
41694;DHT22;27377;50.666;9.150;2024-03-07T03:51:51;2.70;99.90
41694;DHT22;27377;50.666;9.150;2024-03-07T03:54:36;2.60;99.90
41694;DHT22;27377;50.666;9.150;2024-03-07T03:57:20;2.50;99.90
41694;DHT22;27377;50.666;9.150;2024-03-07T04:00:09;2.40;99.90
41694;DHT22;27377;50.666;9.150;2024-03-07T04:02:56;2.30;99.90
41694;DHT22;27377;50.666;9.150;2024-03-07T04:05:40;2.30;99.90
41694;DHT22;27377;50.666;9.150;2024-03-07T04:08:25;2.30;99.90
41694;DHT22;27377;50.666;9.150;2024-03-07T04:11:09;2.30;99.90
41694;DHT22;27377;50.666;9.150;2024-03-07T04:13:53;2.40;99.90
41694;DHT22;27377;50.666;9.150;2024-03-07T04:16:37;2.40;99.90
41694;DHT22;27377;50.666;9.150;2024-03-07T04:19:22;2.40;99.90
41694;DHT22;27377;50.666;9.150;2024-03-07T04:22:06;2.30;99.90
41694;DHT22;27377;50.666;9.150;2024-03-07T04:24:52;2.20;99.90
41694;DHT22;27377;50.666;9.150;2024-03-07T04:27:39;2.20;99.90
41694;DHT22;27377;50.666;9.150;2024-03-07T04:30:24;2.00;99.90
41694;DHT22;27377;50.666;9.150;2024-03-07T04:33:08;2.10;99.90
41694;DHT22;27377;50.666;9.150;2024-03-07T04:35:52;2.10;99.90
41694;DHT22;27377;50.666;9.150;2024-03-07T04:38:36;2.00;99.90
41694;DHT22;27377;50.666;9.150;2024-03-07T04:41:20;1.90;99.90
41694;DHT22;27377;50.666;9.150;2024-03-07T04:44:04;1.90;99.90
41694;DHT22;27377;50.666;9.150;2024-03-07T04:46:49;1.90;99.90
41694;DHT22;27377;50.666;9.150;2024-03-07T04:49:34;1.90;99.90
41694;DHT22;27377;50.666;9.150;2024-03-07T04:52:18;1.90;99.90
41694;DHT22;27377;50.666;9.150;2024-03-07T04:55:02;1.90;99.90
41694;DHT22;27377;50.666;9.150;2024-03-07T04:57:47;1.90;99.90
41694;DHT22;27377;50.666;9.150;2024-03-07T05:00:31;1.90;99.90
41694;DHT22;27377;50.666;9.150;2024-03-07T05:03:15;1.90;99.90
41694;DHT22;27377;50.666;9.150;2024-03-07T05:05:59;1.90;99.90
41694;DHT22;27377;50.666;9.150;2024-03-07T05:08:44;1.90;99.90
41694;DHT22;27377;50.666;9.150;2024-03-07T05:11:29;1.90;99.90
41694;DHT22;27377;50.666;9.150;2024-03-07T05:14:13;1.90;99.90
41694;DHT22;27377;50.666;9.150;2024-03-07T05:16:57;1.90;99.90
41694;DHT22;27377;50.666;9.150;2024-03-07T05:19:52;2.00;99.90
41694;DHT22;27377;50.666;9.150;2024-03-07T05:22:36;2.00;99.90
41694;DHT22;27377;50.666;9.150;2024-03-07T05:25:36;2.10;99.90
41694;DHT22;27377;50.666;9.150;2024-03-07T05:28:20;2.20;99.90
41694;DHT22;27377;50.666;9.150;2024-03-07T05:31:04;2.20;99.90
41694;DHT22;27377;50.666;9.150;2024-03-07T05:33:49;2.30;99.90
41694;DHT22;27377;50.666;9.150;2024-03-07T05:36:35;2.30;99.90
41694;DHT22;27377;50.666;9.150;2024-03-07T05:39:20;2.40;99.90
41694;DHT22;27377;50.666;9.150;2024-03-07T05:42:04;2.40;99.90
41694;DHT22;27377;50.666;9.150;2024-03-07T05:44:48;2.40;99.90
41694;DHT22;27377;50.666;9.150;2024-03-07T05:47:32;2.40;99.90
41694;DHT22;27377;50.666;9.150;2024-03-07T05:50:16;2.30;99.90
41694;DHT22;27377;50.666;9.150;2024-03-07T05:53:02;2.30;99.90
41694;DHT22;27377;50.666;9.150;2024-03-07T05:55:47;2.30;99.90
41694;DHT22;27377;50.666;9.150;2024-03-07T05:58:31;2.30;99.90
41694;DHT22;27377;50.666;9.150;2024-03-07T06:01:15;2.30;99.90
41694;DHT22;27377;50.666;9.150;2024-03-07T06:04:01;2.40;99.90
41694;DHT22;27377;50.666;9.150;2024-03-07T06:06:45;2.40;99.90
41694;DHT22;27377;50.666;9.150;2024-03-07T06:09:31;2.50;99.90
41694;DHT22;27377;50.666;9.150;2024-03-07T06:12:15;2.60;99.90
41694;DHT22;27377;50.666;9.150;2024-03-07T06:14:59;2.60;99.90
41694;DHT22;27377;50.666;9.150;2024-03-07T06:17:44;2.60;99.90
41694;DHT22;27377;50.666;9.150;2024-03-07T06:20:30;2.60;99.90
41694;DHT22;27377;50.666;9.150;2024-03-07T06:23:15;2.60;99.90
41694;DHT22;27377;50.666;9.150;2024-03-07T06:26:00;2.60;99.90
41694;DHT22;27377;50.666;9.150;2024-03-07T06:28:45;2.60;99.90
41694;DHT22;27377;50.666;9.150;2024-03-07T06:31:29;2.60;99.90
41694;DHT22;27377;50.666;9.150;2024-03-07T06:34:14;2.60;99.90
41694;DHT22;27377;50.666;9.150;2024-03-07T06:37:01;2.50;99.90
41694;DHT22;27377;50.666;9.150;2024-03-07T06:39:47;2.50;99.90
41694;DHT22;27377;50.666;9.150;2024-03-07T06:42:32;2.60;99.90
41694;DHT22;27377;50.666;9.150;2024-03-07T06:45:16;2.60;99.90
41694;DHT22;27377;50.666;9.150;2024-03-07T06:48:06;2.60;99.90
41694;DHT22;27377;50.666;9.150;2024-03-07T06:50:53;2.60;99.90
41694;DHT22;27377;50.666;9.150;2024-03-07T06:53:38;2.60;99.90
41694;DHT22;27377;50.666;9.150;2024-03-07T06:56:23;2.60;99.90
41694;DHT22;27377;50.666;9.150;2024-03-07T06:59:10;2.60;99.90
41694;DHT22;27377;50.666;9.150;2024-03-07T07:01:55;2.60;99.90
41694;DHT22;27377;50.666;9.150;2024-03-07T07:04:42;2.70;99.90
41694;DHT22;27377;50.666;9.150;2024-03-07T07:07:26;2.80;99.90
41694;DHT22;27377;50.666;9.150;2024-03-07T07:10:11;2.90;99.90
41694;DHT22;27377;50.666;9.150;2024-03-07T07:13:08;2.90;99.90
41694;DHT22;27377;50.666;9.150;2024-03-07T07:15:53;3.00;99.90
41694;DHT22;27377;50.666;9.150;2024-03-07T07:18:37;3.10;99.90
41694;DHT22;27377;50.666;9.150;2024-03-07T07:21:22;3.20;99.90
41694;DHT22;27377;50.666;9.150;2024-03-07T07:24:06;3.30;99.90
41694;DHT22;27377;50.666;9.150;2024-03-07T07:26:50;3.40;99.90
41694;DHT22;27377;50.666;9.150;2024-03-07T07:29:35;3.40;99.90
41694;DHT22;27377;50.666;9.150;2024-03-07T07:32:19;3.50;99.90
41694;DHT22;27377;50.666;9.150;2024-03-07T07:35:05;3.60;99.90
41694;DHT22;27377;50.666;9.150;2024-03-07T07:37:55;3.60;99.90
41694;DHT22;27377;50.666;9.150;2024-03-07T07:40:39;3.70;99.90
41694;DHT22;27377;50.666;9.150;2024-03-07T07:43:25;3.70;99.90
41694;DHT22;27377;50.666;9.150;2024-03-07T07:46:12;3.80;99.90
41694;DHT22;27377;50.666;9.150;2024-03-07T07:48:57;3.80;99.90
41694;DHT22;27377;50.666;9.150;2024-03-07T07:51:41;3.90;99.90
41694;DHT22;27377;50.666;9.150;2024-03-07T07:54:29;3.90;99.90
41694;DHT22;27377;50.666;9.150;2024-03-07T07:57:14;4.00;99.90
41694;DHT22;27377;50.666;9.150;2024-03-07T07:59:58;4.10;99.90
41694;DHT22;27377;50.666;9.150;2024-03-07T08:02:43;4.00;99.90
41694;DHT22;27377;50.666;9.150;2024-03-07T08:05:30;4.10;99.90
41694;DHT22;27377;50.666;9.150;2024-03-07T08:08:16;4.20;99.90
41694;DHT22;27377;50.666;9.150;2024-03-07T08:11:04;4.20;99.90
41694;DHT22;27377;50.666;9.150;2024-03-07T08:13:30;4.20;99.90
41694;DHT22;27377;50.666;9.150;2024-03-07T08:16:14;4.20;99.90
41694;DHT22;27377;50.666;9.150;2024-03-07T08:18:58;4.30;99.90
41694;DHT22;27377;50.666;9.150;2024-03-07T08:21:42;4.30;99.90
41694;DHT22;27377;50.666;9.150;2024-03-07T08:24:26;4.30;99.90
41694;DHT22;27377;50.666;9.150;2024-03-07T08:27:10;4.30;99.90
41694;DHT22;27377;50.666;9.150;2024-03-07T08:29:55;4.30;99.90
41694;DHT22;27377;50.666;9.150;2024-03-07T08:32:40;4.40;99.90
41694;DHT22;27377;50.666;9.150;2024-03-07T08:35:25;4.50;99.90
41694;DHT22;27377;50.666;9.150;2024-03-07T08:38:09;4.50;99.90
41694;DHT22;27377;50.666;9.150;2024-03-07T08:40:53;4.50;99.90
41694;DHT22;27377;50.666;9.150;2024-03-07T08:43:37;4.50;99.90
41694;DHT22;27377;50.666;9.150;2024-03-07T08:46:21;4.60;99.90
41694;DHT22;27377;50.666;9.150;2024-03-07T08:49:05;4.60;99.90
41694;DHT22;27377;50.666;9.150;2024-03-07T08:51:49;4.60;99.90
41694;DHT22;27377;50.666;9.150;2024-03-07T08:54:33;4.60;99.90
41694;DHT22;27377;50.666;9.150;2024-03-07T08:57:17;4.60;99.90
41694;DHT22;27377;50.666;9.150;2024-03-07T09:00:03;4.70;99.90
41694;DHT22;27377;50.666;9.150;2024-03-07T09:02:56;4.70;99.90
41694;DHT22;27377;50.666;9.150;2024-03-07T09:05:43;4.80;99.90
41694;DHT22;27377;50.666;9.150;2024-03-07T09:08:27;4.90;99.90
41694;DHT22;27377;50.666;9.150;2024-03-07T09:11:11;4.90;99.90
41694;DHT22;27377;50.666;9.150;2024-03-07T09:13:56;5.00;99.90
41694;DHT22;27377;50.666;9.150;2024-03-07T09:16:40;5.00;99.90
41694;DHT22;27377;50.666;9.150;2024-03-07T09:19:25;5.10;99.90
41694;DHT22;27377;50.666;9.150;2024-03-07T09:22:09;5.10;99.90
41694;DHT22;27377;50.666;9.150;2024-03-07T09:24:53;5.10;99.90
41694;DHT22;27377;50.666;9.150;2024-03-07T09:27:37;5.20;99.90
41694;DHT22;27377;50.666;9.150;2024-03-07T09:30:24;5.20;99.90
41694;DHT22;27377;50.666;9.150;2024-03-07T09:33:10;5.30;99.90
41694;DHT22;27377;50.666;9.150;2024-03-07T09:35:54;5.30;99.90
41694;DHT22;27377;50.666;9.150;2024-03-07T09:38:38;5.30;99.90
41694;DHT22;27377;50.666;9.150;2024-03-07T09:41:23;5.40;99.90
41694;DHT22;27377;50.666;9.150;2024-03-07T09:44:15;5.40;99.90
41694;DHT22;27377;50.666;9.150;2024-03-07T09:47:07;5.40;99.90
41694;DHT22;27377;50.666;9.150;2024-03-07T09:49:52;5.50;99.90
41694;DHT22;27377;50.666;9.150;2024-03-07T09:52:38;5.50;99.90
41694;DHT22;27377;50.666;9.150;2024-03-07T09:55:23;5.50;99.90
41694;DHT22;27377;50.666;9.150;2024-03-07T09:58:08;5.60;99.90
41694;DHT22;27377;50.666;9.150;2024-03-07T10:00:53;5.60;99.90
41694;DHT22;27377;50.666;9.150;2024-03-07T10:03:38;5.60;99.90
41694;DHT22;27377;50.666;9.150;2024-03-07T10:06:25;5.60;99.90
41694;DHT22;27377;50.666;9.150;2024-03-07T10:09:13;5.70;99.90
41694;DHT22;27377;50.666;9.150;2024-03-07T10:11:58;5.80;99.90
41694;DHT22;27377;50.666;9.150;2024-03-07T10:14:55;5.80;99.90
41694;DHT22;27377;50.666;9.150;2024-03-07T10:17:41;5.90;99.90
41694;DHT22;27377;50.666;9.150;2024-03-07T10:20:26;6.00;99.90
41694;DHT22;27377;50.666;9.150;2024-03-07T10:23:11;6.00;99.90
41694;DHT22;27377;50.666;9.150;2024-03-07T10:25:55;6.00;99.90
41694;DHT22;27377;50.666;9.150;2024-03-07T10:28:40;6.00;99.90
41694;DHT22;27377;50.666;9.150;2024-03-07T10:31:29;6.10;99.90
41694;DHT22;27377;50.666;9.150;2024-03-07T10:34:14;6.10;99.90
41694;DHT22;27377;50.666;9.150;2024-03-07T10:37:00;6.10;99.90
41694;DHT22;27377;50.666;9.150;2024-03-07T10:39:47;6.20;99.90
41694;DHT22;27377;50.666;9.150;2024-03-07T10:42:33;6.20;99.90
41694;DHT22;27377;50.666;9.150;2024-03-07T10:45:20;6.20;99.90
41694;DHT22;27377;50.666;9.150;2024-03-07T10:48:11;6.20;99.90
41694;DHT22;27377;50.666;9.150;2024-03-07T10:51:20;6.20;99.90
41694;DHT22;27377;50.666;9.150;2024-03-07T11:00:09;6.20;99.90
41694;DHT22;27377;50.666;9.150;2024-03-07T11:03:13;6.30;99.90
41694;DHT22;27377;50.666;9.150;2024-03-07T11:06:00;6.30;99.90
41694;DHT22;27377;50.666;9.150;2024-03-07T11:08:50;6.30;99.90
41694;DHT22;27377;50.666;9.150;2024-03-07T11:11:39;6.40;99.90
41694;DHT22;27377;50.666;9.150;2024-03-07T11:14:28;6.40;99.90
41694;DHT22;27377;50.666;9.150;2024-03-07T11:17:12;6.30;99.90
41694;DHT22;27377;50.666;9.150;2024-03-07T11:26:14;6.30;99.90
41694;DHT22;27377;50.666;9.150;2024-03-07T11:28:58;6.30;99.90
41694;DHT22;27377;50.666;9.150;2024-03-07T11:31:43;6.30;99.90
41694;DHT22;27377;50.666;9.150;2024-03-07T11:34:30;6.30;99.90
41694;DHT22;27377;50.666;9.150;2024-03-07T11:37:37;6.30;99.90
41694;DHT22;27377;50.666;9.150;2024-03-07T11:43:11;6.40;99.90
41694;DHT22;27377;50.666;9.150;2024-03-07T11:45:56;6.40;99.90
41694;DHT22;27377;50.666;9.150;2024-03-07T11:48:41;6.30;99.90
41694;DHT22;27377;50.666;9.150;2024-03-07T11:51:26;6.40;99.90
41694;DHT22;27377;50.666;9.150;2024-03-07T11:54:12;6.30;99.90
41694;DHT22;27377;50.666;9.150;2024-03-07T11:56:58;6.30;99.90
41694;DHT22;27377;50.666;9.150;2024-03-07T11:59:45;6.30;99.90
41694;DHT22;27377;50.666;9.150;2024-03-07T12:02:30;6.30;99.90
41694;DHT22;27377;50.666;9.150;2024-03-07T12:05:14;6.30;99.90
41694;DHT22;27377;50.666;9.150;2024-03-07T12:08:00;6.30;99.90
41694;DHT22;27377;50.666;9.150;2024-03-07T12:10:45;6.20;99.90
41694;DHT22;27377;50.666;9.150;2024-03-07T12:13:29;6.20;99.90
41694;DHT22;27377;50.666;9.150;2024-03-07T12:16:14;6.20;99.90
41694;DHT22;27377;50.666;9.150;2024-03-07T12:18:58;6.20;99.90
41694;DHT22;27377;50.666;9.150;2024-03-07T12:21:42;6.20;99.90
41694;DHT22;27377;50.666;9.150;2024-03-07T12:24:26;6.30;99.90
41694;DHT22;27377;50.666;9.150;2024-03-07T12:27:12;6.30;99.90
41694;DHT22;27377;50.666;9.150;2024-03-07T12:29:56;6.30;99.90
41694;DHT22;27377;50.666;9.150;2024-03-07T12:32:47;6.30;99.90
41694;DHT22;27377;50.666;9.150;2024-03-07T12:35:32;6.30;99.90
41694;DHT22;27377;50.666;9.150;2024-03-07T12:38:16;6.30;99.90
41694;DHT22;27377;50.666;9.150;2024-03-07T12:41:05;6.30;99.90
41694;DHT22;27377;50.666;9.150;2024-03-07T12:43:51;6.30;99.90
41694;DHT22;27377;50.666;9.150;2024-03-07T12:46:35;6.40;99.90
41694;DHT22;27377;50.666;9.150;2024-03-07T12:49:20;6.40;99.90
41694;DHT22;27377;50.666;9.150;2024-03-07T12:52:04;6.40;99.90
41694;DHT22;27377;50.666;9.150;2024-03-07T12:54:50;6.40;99.90
41694;DHT22;27377;50.666;9.150;2024-03-07T12:57:34;6.40;99.90
41694;DHT22;27377;50.666;9.150;2024-03-07T13:00:18;6.40;99.90
41694;DHT22;27377;50.666;9.150;2024-03-07T13:03:07;6.40;99.90
41694;DHT22;27377;50.666;9.150;2024-03-07T13:05:53;6.40;99.90
41694;DHT22;27377;50.666;9.150;2024-03-07T13:08:39;6.40;99.90
41694;DHT22;27377;50.666;9.150;2024-03-07T13:11:24;6.50;99.90
41694;DHT22;27377;50.666;9.150;2024-03-07T13:14:12;6.50;99.90
41694;DHT22;27377;50.666;9.150;2024-03-07T13:16:56;6.50;99.90
41694;DHT22;27377;50.666;9.150;2024-03-07T13:19:43;6.50;99.90
41694;DHT22;27377;50.666;9.150;2024-03-07T13:22:27;6.50;99.90
41694;DHT22;27377;50.666;9.150;2024-03-07T13:25:23;6.50;99.90
41694;DHT22;27377;50.666;9.150;2024-03-07T13:28:13;6.50;99.90
41694;DHT22;27377;50.666;9.150;2024-03-07T13:31:00;6.60;99.90
41694;DHT22;27377;50.666;9.150;2024-03-07T13:33:47;6.50;99.90
41694;DHT22;27377;50.666;9.150;2024-03-07T13:36:34;6.60;99.90
41694;DHT22;27377;50.666;9.150;2024-03-07T13:39:22;6.60;99.90
41694;DHT22;27377;50.666;9.150;2024-03-07T13:42:06;6.60;99.90
41694;DHT22;27377;50.666;9.150;2024-03-07T13:44:55;6.60;99.90
41694;DHT22;27377;50.666;9.150;2024-03-07T13:47:40;6.60;99.90
41694;DHT22;27377;50.666;9.150;2024-03-07T13:50:27;6.70;99.90
41694;DHT22;27377;50.666;9.150;2024-03-07T13:53:12;6.60;99.90
41694;DHT22;27377;50.666;9.150;2024-03-07T13:59:17;6.70;99.90
41694;DHT22;27377;50.666;9.150;2024-03-07T14:05:56;6.70;99.90
41694;DHT22;27377;50.666;9.150;2024-03-07T14:19:34;6.70;99.90
41694;DHT22;27377;50.666;9.150;2024-03-07T14:22:52;6.70;99.90
41694;DHT22;27377;50.666;9.150;2024-03-07T14:32:02;6.60;99.90
41694;DHT22;27377;50.666;9.150;2024-03-07T14:35:00;6.60;99.90
41694;DHT22;27377;50.666;9.150;2024-03-07T14:38:01;6.60;99.90
41694;DHT22;27377;50.666;9.150;2024-03-07T14:40:46;6.60;99.90
41694;DHT22;27377;50.666;9.150;2024-03-07T14:43:34;6.60;99.90
41694;DHT22;27377;50.666;9.150;2024-03-07T14:46:19;6.60;99.90
41694;DHT22;27377;50.666;9.150;2024-03-07T14:49:04;6.60;99.90
41694;DHT22;27377;50.666;9.150;2024-03-07T14:51:49;6.60;99.90
41694;DHT22;27377;50.666;9.150;2024-03-07T14:54:38;6.60;99.90
41694;DHT22;27377;50.666;9.150;2024-03-07T14:57:25;6.60;99.90
41694;DHT22;27377;50.666;9.150;2024-03-07T15:00:11;6.60;99.90
41694;DHT22;27377;50.666;9.150;2024-03-07T15:03:03;6.60;99.90
41694;DHT22;27377;50.666;9.150;2024-03-07T15:05:50;6.60;99.90
41694;DHT22;27377;50.666;9.150;2024-03-07T15:08:37;6.70;99.90
41694;DHT22;27377;50.666;9.150;2024-03-07T15:11:35;6.60;99.90
41694;DHT22;27377;50.666;9.150;2024-03-07T15:14:22;6.60;99.90
41694;DHT22;27377;50.666;9.150;2024-03-07T15:17:09;6.60;99.90
41694;DHT22;27377;50.666;9.150;2024-03-07T15:19:53;6.70;99.90
41694;DHT22;27377;50.666;9.150;2024-03-07T15:22:37;6.70;99.90
41694;DHT22;27377;50.666;9.150;2024-03-07T15:25:04;6.70;99.90
41694;DHT22;27377;50.666;9.150;2024-03-07T15:27:57;6.70;99.90
41694;DHT22;27377;50.666;9.150;2024-03-07T15:30:42;6.60;99.90
41694;DHT22;27377;50.666;9.150;2024-03-07T15:33:26;6.60;99.90
41694;DHT22;27377;50.666;9.150;2024-03-07T15:36:11;6.60;99.90
41694;DHT22;27377;50.666;9.150;2024-03-07T15:38:56;6.60;99.90
41694;DHT22;27377;50.666;9.150;2024-03-07T15:41:41;6.60;99.90
41694;DHT22;27377;50.666;9.150;2024-03-07T15:44:25;6.60;99.90
41694;DHT22;27377;50.666;9.150;2024-03-07T15:47:09;6.60;99.90
41694;DHT22;27377;50.666;9.150;2024-03-07T15:49:54;6.50;99.90
41694;DHT22;27377;50.666;9.150;2024-03-07T15:52:42;6.50;99.90
41694;DHT22;27377;50.666;9.150;2024-03-07T15:55:27;6.50;99.90
41694;DHT22;27377;50.666;9.150;2024-03-07T15:58:12;6.50;99.90
41694;DHT22;27377;50.666;9.150;2024-03-07T16:01:02;6.50;99.90
41694;DHT22;27377;50.666;9.150;2024-03-07T16:03:50;6.50;99.90
41694;DHT22;27377;50.666;9.150;2024-03-07T16:06:35;6.50;99.90
41694;DHT22;27377;50.666;9.150;2024-03-07T16:09:19;6.40;99.90
41694;DHT22;27377;50.666;9.150;2024-03-07T16:12:06;6.40;99.90
41694;DHT22;27377;50.666;9.150;2024-03-07T16:14:52;6.40;99.90
41694;DHT22;27377;50.666;9.150;2024-03-07T16:17:38;6.30;99.90
41694;DHT22;27377;50.666;9.150;2024-03-07T16:20:23;6.30;99.90
41694;DHT22;27377;50.666;9.150;2024-03-07T16:23:07;6.30;99.90
41694;DHT22;27377;50.666;9.150;2024-03-07T16:25:51;6.30;99.90
41694;DHT22;27377;50.666;9.150;2024-03-07T16:28:36;6.20;99.90
41694;DHT22;27377;50.666;9.150;2024-03-07T16:31:20;6.20;99.90
41694;DHT22;27377;50.666;9.150;2024-03-07T16:34:04;6.20;99.90
41694;DHT22;27377;50.666;9.150;2024-03-07T16:36:48;6.20;99.90
41694;DHT22;27377;50.666;9.150;2024-03-07T16:39:32;6.10;99.90
41694;DHT22;27377;50.666;9.150;2024-03-07T16:42:17;6.10;99.90
41694;DHT22;27377;50.666;9.150;2024-03-07T16:45:03;6.10;99.90
41694;DHT22;27377;50.666;9.150;2024-03-07T16:47:58;6.10;99.90
41694;DHT22;27377;50.666;9.150;2024-03-07T16:50:43;6.10;99.90
41694;DHT22;27377;50.666;9.150;2024-03-07T16:53:28;6.10;99.90
41694;DHT22;27377;50.666;9.150;2024-03-07T16:56:17;6.10;99.90
41694;DHT22;27377;50.666;9.150;2024-03-07T16:59:02;6.00;99.90
41694;DHT22;27377;50.666;9.150;2024-03-07T17:01:48;6.00;99.90
41694;DHT22;27377;50.666;9.150;2024-03-07T17:04:34;6.00;99.90
41694;DHT22;27377;50.666;9.150;2024-03-07T17:07:19;6.00;99.90
41694;DHT22;27377;50.666;9.150;2024-03-07T17:10:04;6.00;99.90
41694;DHT22;27377;50.666;9.150;2024-03-07T17:12:51;6.00;99.90
41694;DHT22;27377;50.666;9.150;2024-03-07T17:15:36;6.00;99.90
41694;DHT22;27377;50.666;9.150;2024-03-07T17:18:21;5.90;99.90
41694;DHT22;27377;50.666;9.150;2024-03-07T17:21:05;5.90;99.90
41694;DHT22;27377;50.666;9.150;2024-03-07T17:23:50;5.90;99.90
41694;DHT22;27377;50.666;9.150;2024-03-07T17:26:34;5.80;99.90
41694;DHT22;27377;50.666;9.150;2024-03-07T17:29:19;5.70;99.90
41694;DHT22;27377;50.666;9.150;2024-03-07T17:32:05;5.70;99.90
41694;DHT22;27377;50.666;9.150;2024-03-07T17:34:51;5.70;99.90
41694;DHT22;27377;50.666;9.150;2024-03-07T17:37:35;5.70;99.90
41694;DHT22;27377;50.666;9.150;2024-03-07T17:40:21;5.70;99.90
41694;DHT22;27377;50.666;9.150;2024-03-07T17:43:10;5.60;99.90
41694;DHT22;27377;50.666;9.150;2024-03-07T17:45:55;5.60;99.90
41694;DHT22;27377;50.666;9.150;2024-03-07T17:48:42;5.60;99.90
41694;DHT22;27377;50.666;9.150;2024-03-07T17:51:27;5.60;99.90
41694;DHT22;27377;50.666;9.150;2024-03-07T17:54:10;5.50;99.90
41694;DHT22;27377;50.666;9.150;2024-03-07T17:56:56;5.50;99.90
41694;DHT22;27377;50.666;9.150;2024-03-07T17:59:41;5.50;99.90
41694;DHT22;27377;50.666;9.150;2024-03-07T18:02:28;5.50;99.90
41694;DHT22;27377;50.666;9.150;2024-03-07T18:05:14;5.40;99.90
41694;DHT22;27377;50.666;9.150;2024-03-07T18:07:58;5.40;99.90
41694;DHT22;27377;50.666;9.150;2024-03-07T18:10:43;5.40;99.90
41694;DHT22;27377;50.666;9.150;2024-03-07T18:13:34;5.40;99.90
41694;DHT22;27377;50.666;9.150;2024-03-07T18:16:20;5.40;99.90
41694;DHT22;27377;50.666;9.150;2024-03-07T18:19:04;5.40;99.90
41694;DHT22;27377;50.666;9.150;2024-03-07T18:21:51;5.30;99.90